Time;durP1;ratioP1;P1;durP2;ratioP2;P2;SDS_P1;SDS_P2;PMS_P1;PMS_P2;Temp;Humidity;BMP_temperature;BMP_pressure;BME280_temperature;BME280_humidity;BME280_pressure;Samples;Min_cycle;Max_cycle;Signal;HPM_P1;HPM_P2
2022/10/30 06:06:32;;;;;;;19.75;6.78;;;17.30;83.50;;;;;;5378269;23;20053;-76
2022/10/30 06:08:58;;;;;;;20.27;6.93;;;17.30;83.90;;;;;;4864188;29;20063;-70
2022/10/30 06:11:24;;;;;;;16.17;8.05;;;17.30;83.20;;;;;;4865333;29;20128;-78
2022/10/30 06:13:49;;;;;;;22.88;8.93;;;17.40;83.00;;;;;;4865006;29;20454;-73
2022/10/30 06:16:15;;;;;;;17.75;9.68;;;17.40;82.30;;;;;;4865036;29;20081;-73
2022/10/30 06:18:41;;;;;;;14.23;9.40;;;17.40;81.50;;;;;;4864862;29;20044;-72
2022/10/30 06:21:07;;;;;;;23.35;9.70;;;17.40;80.80;;;;;;4865020;29;20100;-72
2022/10/30 06:23:32;;;;;;;21.23;8.82;;;17.30;80.00;;;;;;4864719;29;20121;-71
2022/10/30 06:25:58;;;;;;;19.58;9.55;;;17.30;79.60;;;;;;4865210;29;20392;-74
2022/10/30 06:28:24;;;;;;;17.05;9.57;;;17.30;79.30;;;;;;4865362;29;20049;-73
2022/10/30 06:30:50;;;;;;;16.77;10.18;;;17.20;79.30;;;;;;4864989;29;20182;-74
2022/10/30 06:33:15;;;;;;;16.17;8.85;;;17.30;79.30;;;;;;4864794;29;20359;-75
2022/10/30 06:35:41;;;;;;;21.70;10.18;;;17.20;79.20;;;;;;4864326;29;20364;-74
2022/10/30 06:38:08;;;;;;;16.10;9.18;;;17.20;78.90;;;;;;4864655;29;20064;-74
2022/10/30 06:40:34;;;;;;;17.13;9.25;;;17.30;78.80;;;;;;4864506;29;20053;-74
2022/10/30 06:43:02;;;;;;;14.77;9.15;;;17.20;78.70;;;;;;4863801;29;20109;-74
2022/10/30 06:45:27;;;;;;;14.40;8.02;;;17.30;78.80;;;;;;4864206;29;20352;-73
2022/10/30 06:47:53;;;;;;;19.33;10.05;;;17.30;79.00;;;;;;4863786;29;20485;-75
2022/10/30 06:50:20;;;;;;;16.90;9.77;;;17.30;79.10;;;;;;4863667;29;20041;-73
2022/10/30 06:52:47;;;;;;;14.65;9.23;;;17.30;79.00;;;;;;4863595;29;20061;-74
2022/10/30 06:55:13;;;;;;;15.27;9.40;;;17.30;78.70;;;;;;4864088;29;20057;-71
2022/10/30 06:57:38;;;;;;;26.55;10.15;;;17.30;78.40;;;;;;4864260;29;20470;-74
2022/10/30 07:00:06;;;;;;;14.93;8.30;;;17.30;78.40;;;;;;4864190;29;20101;-73
2022/10/30 07:02:32;;;;;;;17.73;9.55;;;17.30;78.40;;;;;;4863676;29;20489;-74
2022/10/30 07:04:58;;;;;;;15.68;10.20;;;17.30;78.20;;;;;;4863567;29;20094;-73
2022/10/30 07:07:24;;;;;;;15.63;9.57;;;17.30;78.00;;;;;;4863194;29;20062;-73
2022/10/30 07:09:49;;;;;;;14.90;9.05;;;17.30;77.90;;;;;;4865518;29;20120;-73
2022/10/30 07:12:15;;;;;;;15.55;8.70;;;17.20;77.80;;;;;;4863666;29;20056;-73
2022/10/30 07:14:41;;;;;;;15.85;9.32;;;17.20;77.80;;;;;;4863847;29;20125;-74
2022/10/30 07:17:07;;;;;;;13.40;8.90;;;17.20;77.90;;;;;;4864312;29;20287;-74
2022/10/30 07:19:34;;;;;;;13.40;9.35;;;17.20;77.90;;;;;;4866183;29;20056;-75
2022/10/30 07:22:00;;;;;;;15.45;9.15;;;17.20;77.70;;;;;;4865468;29;20069;-73
2022/10/30 07:24:27;;;;;;;16.27;9.57;;;17.20;77.70;;;;;;4882309;29;20057;-72
2022/10/30 07:26:54;;;;;;;15.75;8.77;;;17.10;77.70;;;;;;4881829;29;20049;-74
2022/10/30 07:29:20;;;;;;;18.08;8.98;;;17.10;77.80;;;;;;4881570;29;20052;-72
2022/10/30 07:31:48;;;;;;;16.63;9.70;;;17.00;77.90;;;;;;4862759;29;20049;-76
2022/10/30 07:34:14;;;;;;;18.63;10.45;;;17.00;78.10;;;;;;4875458;29;20467;-75
2022/10/30 07:36:39;;;;;;;20.17;10.77;;;17.00;78.40;;;;;;4882087;29;20101;-73
2022/10/30 07:39:05;;;;;;;14.23;9.48;;;16.90;78.60;;;;;;4865446;29;20056;-72
2022/10/30 07:41:31;;;;;;;21.42;10.32;;;16.90;78.90;;;;;;4864595;29;20371;-73
2022/10/30 07:43:56;;;;;;;18.60;10.45;;;16.90;79.10;;;;;;4863229;29;20053;-73
2022/10/30 07:46:22;;;;;;;18.65;9.88;;;16.80;79.50;;;;;;4865255;29;20533;-73
2022/10/30 07:48:48;;;;;;;18.48;8.85;;;16.80;79.80;;;;;;4867970;29;20045;-72
2022/10/30 07:51:14;;;;;;;15.18;8.98;;;16.80;79.90;;;;;;4862885;29;20403;-72
2022/10/30 07:53:51;;;;;;;16.50;10.25;;;16.90;79.90;;;;;;4862727;29;20098;-72
2022/10/30 07:56:24;;;;;;;16.85;9.85;;;16.90;79.70;;;;;;4864097;29;20092;-72
2022/10/30 07:58:53;;;;;;;12.90;9.90;;;16.90;79.60;;;;;;4871394;29;20053;-73
2022/10/30 08:01:19;;;;;;;17.58;9.85;;;16.80;79.50;;;;;;4862356;29;20053;-72
2022/10/30 08:03:44;;;;;;;16.83;10.23;;;16.80;79.50;;;;;;4861070;29;20347;-73
2022/10/30 08:06:10;;;;;;;13.73;9.30;;;16.80;79.50;;;;;;4862392;29;20049;-72
2022/10/30 08:08:36;;;;;;;16.45;10.63;;;16.80;79.60;;;;;;4863025;29;20057;-71
2022/10/30 08:11:01;;;;;;;19.65;10.00;;;16.80;79.60;;;;;;4864121;29;20061;-73
2022/10/30 08:13:27;;;;;;;16.50;10.15;;;16.80;79.60;;;;;;4864951;29;20052;-73
2022/10/30 08:15:53;;;;;;;20.10;10.15;;;16.80;79.60;;;;;;4881219;29;20135;-73
2022/10/30 08:18:18;;;;;;;20.45;9.95;;;16.80;79.60;;;;;;4881701;29;20041;-72
2022/10/30 08:20:49;;;;;;;16.60;9.98;;;16.80;79.60;;;;;;4881422;29;20128;-72
2022/10/30 08:23:16;;;;;;;17.30;10.25;;;16.80;79.70;;;;;;4863031;29;20084;-73
2022/10/30 08:25:42;;;;;;;16.52;9.95;;;16.80;79.70;;;;;;4863395;29;20053;-73
2022/10/30 08:28:10;;;;;;;16.23;9.23;;;16.90;79.80;;;;;;4862825;29;20463;-72
2022/10/30 08:30:37;;;;;;;15.60;10.35;;;16.80;79.70;;;;;;4862898;29;20455;-73
2022/10/30 08:33:10;;;;;;;17.05;10.93;;;16.90;79.90;;;;;;4878465;29;20041;-72
2022/10/30 08:35:35;;;;;;;16.73;10.33;;;16.90;80.00;;;;;;4881621;29;20419;-72
2022/10/30 08:38:04;;;;;;;18.10;10.88;;;16.90;80.00;;;;;;4881864;29;20045;-72
2022/10/30 08:40:29;;;;;;;14.63;9.98;;;16.90;80.10;;;;;;4881831;29;20045;-72
2022/10/30 08:42:57;;;;;;;17.13;10.80;;;16.90;80.10;;;;;;4865409;29;20128;-72
2022/10/30 08:45:24;;;;;;;20.45;10.80;;;16.90;80.20;;;;;;4862428;29;20514;-72
2022/10/30 08:48:02;;;;;;;16.60;10.32;;;16.90;80.20;;;;;;4862942;29;20085;-72
2022/10/30 08:50:28;;;;;;;18.35;10.85;;;16.90;80.30;;;;;;4862737;29;20482;-73
2022/10/30 08:52:54;;;;;;;15.90;10.20;;;16.90;80.30;;;;;;4877187;29;20048;-73
2022/10/30 08:55:20;;;;;;;19.08;10.52;;;16.90;80.40;;;;;;4881008;29;20435;-73
2022/10/30 08:57:45;;;;;;;18.63;10.10;;;16.90;80.50;;;;;;4881347;29;20048;-73
2022/10/30 09:00:12;;;;;;;15.85;10.57;;;17.00;80.50;;;;;;4881055;29;20061;-74
2022/10/30 09:02:40;;;;;;;15.88;9.82;;;17.00;80.50;;;;;;4875743;29;20063;-73
2022/10/30 09:05:07;;;;;;;16.52;10.05;;;17.00;80.60;;;;;;4880687;29;20481;-73
2022/10/30 09:07:34;;;;;;;17.70;10.27;;;17.00;81.30;;;;;;4880514;29;20072;-72
2022/10/30 09:10:00;;;;;;;17.02;10.00;;;17.00;80.70;;;;;;4881205;29;20052;-74
2022/10/30 09:12:25;;;;;;;15.95;10.40;;;17.00;80.80;;;;;;4875134;29;20045;-74
2022/10/30 09:14:51;;;;;;;15.05;10.27;;;17.00;80.80;;;;;;4880830;29;20060;-75
2022/10/30 09:17:17;;;;;;;15.45;10.20;;;17.00;80.90;;;;;;4884602;29;20057;-75
2022/10/30 09:19:43;;;;;;;21.58;11.13;;;17.00;80.90;;;;;;4884153;29;20131;-75
2022/10/30 09:22:08;;;;;;;17.73;10.90;;;17.10;81.00;;;;;;4875427;29;20050;-75
2022/10/30 09:24:34;;;;;;;17.83;10.68;;;17.10;81.10;;;;;;4865482;29;20053;-75
2022/10/30 09:27:00;;;;;;;16.30;10.18;;;17.10;81.10;;;;;;4848742;29;20064;-76
2022/10/30 09:29:25;;;;;;;18.77;11.27;;;17.10;81.20;;;;;;4848812;29;20046;-76
2022/10/30 09:31:51;;;;;;;17.13;9.98;;;17.10;81.20;;;;;;4869736;29;20450;-76
2022/10/30 09:34:17;;;;;;;17.80;10.73;;;17.10;81.30;;;;;;4883901;29;20045;-77
2022/10/30 09:36:42;;;;;;;18.02;10.70;;;17.10;81.30;;;;;;4884057;29;20568;-74
2022/10/30 09:39:10;;;;;;;19.10;11.02;;;17.10;81.40;;;;;;4884527;29;20057;-75
2022/10/30 09:41:41;;;;;;;15.57;9.75;;;17.10;81.40;;;;;;4881279;29;20045;-77
2022/10/30 09:44:15;;;;;;;19.15;10.65;;;17.10;81.50;;;;;;4865501;29;20363;-76
2022/10/30 09:47:01;;;;;;;23.10;11.05;;;17.10;81.60;;;;;;4848891;29;20136;-77
2022/10/30 09:49:30;;;;;;;23.38;9.80;;;17.10;81.90;;;;;;4865576;29;20145;-73
2022/10/30 09:52:18;;;;;;;18.67;10.00;;;17.10;82.10;;;;;;4870127;29;20053;-73
2022/10/30 09:55:04;;;;;;;20.45;10.45;;;17.20;82.50;;;;;;4883384;29;20049;-74
2022/10/30 09:57:36;;;;;;;22.35;10.20;;;17.20;82.50;;;;;;4883682;29;20136;-73
2022/10/30 10:00:12;;;;;;;22.67;10.38;;;17.30;82.60;;;;;;4883585;29;20060;-76
2022/10/30 10:03:07;;;;;;;18.17;9.65;;;17.30;82.70;;;;;;4871632;29;20153;-75
2022/10/30 10:05:57;;;;;;;16.48;9.45;;;17.30;82.60;;;;;;4865032;29;20136;-75
2022/10/30 10:08:56;;;;;;;19.15;9.32;;;17.40;82.60;;;;;;4865094;29;20053;-75
2022/10/30 10:11:31;;;;;;;21.70;8.50;;;17.40;82.50;;;;;;4864911;29;20470;-75
2022/10/30 10:14:07;;;;;;;15.50;8.25;;;17.40;82.40;;;;;;4867134;29;20053;-74
2022/10/30 10:16:37;;;;;;;18.23;8.50;;;17.40;82.40;;;;;;4883493;29;20076;-75
2022/10/30 10:19:14;;;;;;;16.80;8.48;;;17.40;82.50;;;;;;4883117;29;20139;-75
2022/10/30 10:21:59;;;;;;;15.43;7.97;;;17.40;82.30;;;;;;4880011;29;20427;-75
2022/10/30 10:24:41;;;;;;;15.25;8.32;;;17.40;82.20;;;;;;4864961;29;20056;-76
2022/10/30 10:27:20;;;;;;;13.52;8.07;;;17.40;82.10;;;;;;4864004;29;20136;-75
2022/10/30 10:30:03;;;;;;;14.68;7.75;;;17.50;82.10;;;;;;4865032;29;20049;-75
2022/10/30 10:32:50;;;;;;;19.20;7.47;;;17.50;82.10;;;;;;4857166;29;20088;-75
2022/10/30 10:35:42;;;;;;;13.98;7.22;;;17.50;82.00;;;;;;4883329;29;20374;-74
2022/10/30 10:38:10;;;;;;;14.77;7.43;;;17.50;82.00;;;;;;4862707;29;20071;-76
2022/10/30 10:40:59;;;;;;;12.45;6.95;;;17.50;81.90;;;;;;4883348;29;20049;-75
2022/10/30 10:43:37;;;;;;;11.63;6.32;;;17.50;81.90;;;;;;4866433;29;20045;-75
2022/10/30 10:46:48;;;;;;;10.82;6.30;;;17.50;81.80;;;;;;4864449;29;20050;-76
2022/10/30 10:49:47;;;;;;;9.93;5.93;;;17.50;81.70;;;;;;4810626;29;20464;-76
2022/10/30 10:52:23;;;;;;;10.88;6.18;;;17.50;81.70;;;;;;4870398;29;20136;-75
2022/10/30 10:54:59;;;;;;;11.63;5.72;;;17.50;81.70;;;;;;4883059;29;20041;-76
2022/10/30 10:57:31;;;;;;;10.10;5.78;;;17.50;81.60;;;;;;4882964;29;20053;-76
2022/10/30 11:00:06;;;;;;;9.95;5.90;;;17.50;81.60;;;;;;4883029;29;20458;-75
2022/10/30 11:03:12;;;;;;;8.55;6.20;;;17.60;81.70;;;;;;4874930;29;20057;-75
2022/10/30 11:06:03;;;;;;;11.38;6.38;;;17.60;81.60;;;;;;4864005;29;20058;-76
2022/10/30 11:08:36;;;;;;;7.97;5.70;;;17.60;81.60;;;;;;4864023;29;20072;-76
2022/10/30 11:11:06;;;;;;;10.33;6.33;;;17.60;81.60;;;;;;4864430;29;20089;-75
2022/10/30 11:13:40;;;;;;;10.52;5.88;;;17.60;81.60;;;;;;4863758;29;20282;-76
2022/10/30 11:16:50;;;;;;;10.15;6.13;;;17.60;81.50;;;;;;4863933;29;20069;-76
2022/10/30 11:19:16;;;;;;;7.80;5.30;;;17.60;81.50;;;;;;4824987;29;20058;-76
2022/10/30 11:21:47;;;;;;;8.38;5.30;;;17.60;81.50;;;;;;4836080;29;20407;-76
2022/10/30 11:24:26;;;;;;;11.43;6.22;;;17.60;81.50;;;;;;4853505;29;20395;-76
2022/10/30 11:26:55;;;;;;;7.43;5.47;;;17.60;81.50;;;;;;4863618;29;20062;-76
2022/10/30 11:29:28;;;;;;;8.95;5.10;;;17.60;81.50;;;;;;4863619;29;20106;-76
2022/10/30 11:32:04;;;;;;;7.50;5.47;;;17.60;82.10;;;;;;4875883;29;20056;-76
2022/10/30 11:34:35;;;;;;;8.63;5.18;;;17.60;81.40;;;;;;4882049;29;20120;-76
2022/10/30 11:37:02;;;;;;;8.90;5.15;;;17.60;81.40;;;;;;4882275;29;20053;-75
2022/10/30 11:39:33;;;;;;;7.88;5.35;;;17.60;81.40;;;;;;4882191;29;20103;-75
2022/10/30 11:42:05;;;;;;;6.90;4.50;;;17.60;81.30;;;;;;4868595;29;20549;-76
2022/10/30 11:44:37;;;;;;;8.27;4.55;;;17.60;81.30;;;;;;4863318;29;20060;-76
2022/10/30 11:47:05;;;;;;;7.40;5.03;;;17.60;81.30;;;;;;4863421;29;20057;-76
2022/10/30 11:49:36;;;;;;;7.32;5.18;;;17.70;81.30;;;;;;4863406;29;20046;-77
2022/10/30 11:52:03;;;;;;;8.68;4.90;;;17.70;81.30;;;;;;4876275;29;20049;-76
2022/10/30 11:54:33;;;;;;;7.63;4.93;;;17.70;81.20;;;;;;4881931;29;20125;-76
2022/10/30 11:56:59;;;;;;;7.75;4.88;;;17.70;81.20;;;;;;4881982;29;20378;-77
2022/10/30 11:59:25;;;;;;;8.43;5.30;;;17.70;81.20;;;;;;4881419;29;20049;-76
2022/10/30 12:02:19;;;;;;;7.70;4.95;;;17.70;81.20;;;;;;4878013;29;20049;-76
2022/10/30 12:04:44;;;;;;;8.40;5.18;;;17.70;81.10;;;;;;4881778;29;20053;-77
2022/10/30 12:07:17;;;;;;;6.68;4.97;;;17.70;81.20;;;;;;4865099;29;20462;-76
2022/10/30 12:09:45;;;;;;;6.60;4.43;;;17.70;81.10;;;;;;4881641;29;20386;-75
2022/10/30 12:12:18;;;;;;;4.95;4.38;;;17.70;81.10;;;;;;4871050;29;20060;-77
2022/10/30 12:14:44;;;;;;;6.28;4.30;;;17.70;81.10;;;;;;4862913;29;20088;-75
2022/10/30 12:17:14;;;;;;;5.25;4.07;;;17.70;81.10;;;;;;4862895;29;20077;-77
2022/10/30 12:19:52;;;;;;;6.13;4.20;;;17.70;81.00;;;;;;4863618;29;20426;-77
2022/10/30 12:22:29;;;;;;;6.53;4.30;;;17.70;81.00;;;;;;4873139;29;20436;-77
2022/10/30 12:24:57;;;;;;;7.57;4.25;;;17.70;80.90;;;;;;4881457;29;20064;-76
2022/10/30 12:27:24;;;;;;;6.22;4.35;;;17.70;80.90;;;;;;4881934;29;20427;-76
2022/10/30 12:30:13;;;;;;;7.32;4.22;;;17.70;80.90;;;;;;4882078;29;20051;-76
2022/10/30 12:32:50;;;;;;;6.05;4.25;;;17.70;80.90;;;;;;4856621;29;20057;-76
2022/10/30 12:35:34;;;;;;;5.95;4.20;;;17.70;80.90;;;;;;4862716;29;20045;-76
2022/10/30 12:38:02;;;;;;;;;;;17.70;80.90;;;;;;4862542;29;20534;-75
2022/10/30 12:40:34;;;;;;;6.43;3.72;;;17.80;80.90;;;;;;4863187;29;19979;-77
2022/10/30 12:43:08;;;;;;;5.90;4.22;;;17.80;81.00;;;;;;4862000;29;20045;-76
2022/10/30 12:45:43;;;;;;;6.78;3.47;;;17.70;81.00;;;;;;4865375;29;20324;-76
2022/10/30 12:48:36;;;;;;;6.03;3.88;;;17.80;81.00;;;;;;4881285;29;20089;-76
2022/10/30 12:51:11;;;;;;;5.43;4.13;;;17.80;81.10;;;;;;4881536;29;20486;-75
2022/10/30 12:53:42;;;;;;;6.80;3.63;;;17.80;81.10;;;;;;4866579;29;20056;-76
2022/10/30 12:56:17;;;;;;;8.93;4.07;;;17.80;81.10;;;;;;4866436;29;20056;-76
2022/10/30 12:59:07;;;;;;;7.13;3.90;;;17.80;81.10;;;;;;4866353;29;20113;-76
2022/10/30 13:01:35;;;;;;;6.13;4.47;;;17.80;81.00;;;;;;4871196;29;20343;-76
2022/10/30 13:04:35;;;;;;;4.47;3.70;;;17.80;81.10;;;;;;4884649;29;20048;-76
2022/10/30 13:07:11;;;;;;;5.38;4.35;;;17.80;81.00;;;;;;4884545;29;20483;-76
2022/10/30 13:09:41;;;;;;;5.88;4.07;;;17.80;81.10;;;;;;4885277;29;20060;-76
2022/10/30 13:12:17;;;;;;;6.45;4.00;;;17.80;81.00;;;;;;4875752;29;20057;-76
2022/10/30 13:14:55;;;;;;;5.05;3.90;;;17.80;81.00;;;;;;4865961;29;20053;-75
2022/10/30 13:17:21;;;;;;;5.72;3.65;;;17.90;81.10;;;;;;4866220;29;20054;-77
2022/10/30 13:19:47;;;;;;;5.40;3.80;;;17.80;81.00;;;;;;4865996;29;20378;-76
2022/10/30 13:22:43;;;;;;;5.20;3.42;;;17.80;81.00;;;;;;4874381;29;20531;-76
2022/10/30 13:25:33;;;;;;;6.65;3.88;;;17.90;81.00;;;;;;4860139;29;20348;-75
2022/10/30 13:28:10;;;;;;;5.22;3.75;;;17.90;81.00;;;;;;4885098;29;20063;-76
2022/10/30 13:30:43;;;;;;;5.10;3.72;;;17.90;81.00;;;;;;4884886;29;20045;-77
2022/10/30 13:33:31;;;;;;;6.28;4.40;;;17.90;81.00;;;;;;4867675;29;20056;-76
2022/10/30 13:36:11;;;;;;;5.80;3.78;;;17.90;80.90;;;;;;4865526;29;20053;-76
2022/10/30 13:38:46;;;;;;;6.20;3.90;;;17.90;81.00;;;;;;4865870;29;20053;-76
2022/10/30 13:41:35;;;;;;;6.35;3.95;;;17.90;81.00;;;;;;4866115;29;20086;-77
2022/10/30 13:44:39;;;;;;;4.82;3.30;;;17.90;80.90;;;;;;4884163;29;20045;-77
2022/10/30 13:47:44;;;;;;;4.45;3.53;;;17.90;80.90;;;;;;4883926;29;20067;-77
2022/10/30 13:50:47;;;;;;;4.57;3.13;;;17.90;80.90;;;;;;4883242;29;20057;-77
2022/10/30 13:53:19;;;;;;;4.75;3.60;;;17.90;81.00;;;;;;4867374;29;20092;-75
2022/10/30 13:55:46;;;;;;;4.15;3.40;;;17.90;81.00;;;;;;4865131;29;20053;-77
2022/10/30 13:58:12;;;;;;;4.22;3.55;;;17.90;80.90;;;;;;4865190;29;20057;-76
2022/10/30 14:00:43;;;;;;;3.88;3.05;;;17.90;81.00;;;;;;4865176;29;20063;-76
2022/10/30 14:03:19;;;;;;;6.70;3.72;;;17.90;80.90;;;;;;4865177;29;20049;-75
2022/10/30 14:06:10;;;;;;;3.85;3.42;;;17.90;80.90;;;;;;4865208;29;20053;-76
2022/10/30 14:09:11;;;;;;;4.75;3.40;;;17.90;80.90;;;;;;4864908;29;20057;-76
2022/10/30 14:11:37;;;;;;;6.03;3.55;;;17.90;80.90;;;;;;4857893;29;20086;-77
2022/10/30 14:14:04;;;;;;;3.72;3.30;;;17.90;81.00;;;;;;4883645;29;20053;-77
2022/10/30 14:16:45;;;;;;;5.15;3.30;;;17.90;81.00;;;;;;4883127;29;20074;-77
2022/10/30 14:19:16;;;;;;;5.25;3.70;;;17.90;80.90;;;;;;4883178;29;20087;-76
2022/10/30 14:21:55;;;;;;;4.80;3.38;;;17.90;80.90;;;;;;4876386;29;20090;-75
2022/10/30 14:24:27;;;;;;;4.57;3.45;;;17.90;80.90;;;;;;4865492;29;20049;-76
2022/10/30 14:27:02;;;;;;;4.07;3.13;;;17.90;81.60;;;;;;4848942;29;20057;-77
2022/10/30 14:29:34;;;;;;;4.97;3.25;;;17.90;81.00;;;;;;4864641;29;20098;-77
2022/10/30 14:32:17;;;;;;;4.75;3.40;;;17.90;81.00;;;;;;4873098;29;20064;-76
2022/10/30 14:34:57;;;;;;;5.97;3.53;;;17.90;81.00;;;;;;4883106;29;20485;-76
2022/10/30 14:37:23;;;;;;;3.78;3.28;;;17.90;81.10;;;;;;4882928;29;20068;-76
2022/10/30 14:39:52;;;;;;;3.33;3.03;;;17.90;81.10;;;;;;4866949;29;20049;-73
2022/10/30 14:42:24;;;;;;;5.05;3.00;;;17.90;81.10;;;;;;4871796;29;20458;-73
2022/10/30 14:44:59;;;;;;;14.23;7.20;;;17.90;81.10;;;;;;4864068;29;20049;-75
2022/10/30 14:47:30;;;;;;;36.20;9.60;;;17.80;81.40;;;;;;4863591;29;20049;-73
2022/10/30 14:50:00;;;;;;;14.93;7.30;;;17.80;81.70;;;;;;4853676;29;20049;-71
2022/10/30 14:52:47;;;;;;;16.48;7.75;;;17.80;81.90;;;;;;4881002;29;20068;-76
2022/10/30 14:55:32;;;;;;;17.98;7.85;;;17.80;81.90;;;;;;4882695;29;20113;-71
2022/10/30 14:58:01;;;;;;;19.05;7.30;;;17.80;82.10;;;;;;4882684;29;20103;-74
2022/10/30 15:00:33;;;;;;;19.98;7.85;;;17.80;82.30;;;;;;4881059;29;20045;-72
2022/10/30 15:03:12;;;;;;;18.83;8.80;;;17.90;82.40;;;;;;4864037;29;20105;-73
2022/10/30 15:06:12;;;;;;;15.73;7.70;;;17.90;82.50;;;;;;4864170;29;20143;-73
2022/10/30 15:08:47;;;;;;;21.40;11.05;;;17.90;82.50;;;;;;4863851;29;20096;-72
2022/10/30 15:11:40;;;;;;;18.58;10.93;;;17.90;82.60;;;;;;4871291;29;20116;-73
2022/10/30 15:14:21;;;;;;;20.52;10.43;;;17.90;82.70;;;;;;4881365;29;20048;-74
2022/10/30 15:16:49;;;;;;;18.73;11.43;;;17.90;82.70;;;;;;4882344;29;20052;-72
2022/10/30 15:19:16;;;;;;;18.35;10.80;;;17.90;82.90;;;;;;4881976;29;20355;-74
2022/10/30 15:21:45;;;;;;;21.77;11.18;;;17.90;82.90;;;;;;4881156;29;20048;-75
2022/10/30 15:24:15;;;;;;;20.95;11.75;;;18.00;82.90;;;;;;4882294;29;20451;-73
2022/10/30 15:26:50;;;;;;;20.73;11.40;;;18.00;83.10;;;;;;4882441;29;20045;-75
2022/10/30 15:29:23;;;;;;;22.60;10.93;;;18.00;83.20;;;;;;4882239;29;20456;-74
2022/10/30 15:32:04;;;;;;;18.92;10.57;;;18.00;83.30;;;;;;4870682;29;20077;-74
2022/10/30 15:34:32;;;;;;;25.70;11.05;;;18.00;83.20;;;;;;4862003;29;20045;-74
2022/10/30 15:36:58;;;;;;;16.35;10.40;;;18.00;83.00;;;;;;4864140;29;20057;-74
2022/10/30 15:39:24;;;;;;;22.98;11.02;;;18.00;83.00;;;;;;4863837;29;20084;-73
2022/10/30 15:41:53;;;;;;;19.65;9.85;;;18.00;83.10;;;;;;4873834;29;20088;-74
2022/10/30 15:44:28;;;;;;;20.90;10.23;;;18.00;83.10;;;;;;4881240;29;20052;-73
2022/10/30 15:46:56;;;;;;;24.08;10.75;;;18.10;83.10;;;;;;4881565;29;20060;-73
2022/10/30 15:49:40;;;;;;;21.45;9.82;;;18.10;83.00;;;;;;4881681;29;20056;-74
2022/10/30 15:52:33;;;;;;;19.02;9.55;;;18.00;83.10;;;;;;4868179;29;20049;-72
2022/10/30 15:55:04;;;;;;;19.02;9.48;;;18.00;83.20;;;;;;4860735;29;20065;-74
2022/10/30 15:57:35;;;;;;;14.40;9.48;;;18.00;83.30;;;;;;4863673;29;20076;-75
2022/10/30 16:00:17;;;;;;;12.75;8.48;;;18.00;83.30;;;;;;4863270;29;20052;-74
2022/10/30 16:02:48;;;;;;;17.55;9.15;;;18.00;83.30;;;;;;4864819;29;20375;-74
2022/10/30 16:05:23;;;;;;;15.82;8.18;;;18.00;83.30;;;;;;4846493;29;20059;-74
2022/10/30 16:07:49;;;;;;;16.98;9.15;;;18.00;83.30;;;;;;4862802;29;20049;-75
2022/10/30 16:10:16;;;;;;;16.05;9.23;;;18.00;83.30;;;;;;4863101;29;20084;-74
2022/10/30 16:12:43;;;;;;;13.70;8.15;;;18.00;83.40;;;;;;4860756;29;20063;-74
2022/10/30 16:15:46;;;;;;;17.60;8.15;;;18.00;83.30;;;;;;4881680;29;20394;-75
2022/10/30 16:18:20;;;;;;;13.35;7.65;;;18.00;83.40;;;;;;4878602;29;20073;-74
2022/10/30 16:20:55;;;;;;;13.13;8.63;;;18.00;83.40;;;;;;4881731;29;20061;-75
2022/10/30 16:23:21;;;;;;;14.60;8.82;;;18.00;83.50;;;;;;4862059;29;20072;-76
2022/10/30 16:25:52;;;;;;;17.77;10.38;;;18.00;83.40;;;;;;4860820;29;20064;-74
2022/10/30 16:28:30;;;;;;;18.70;8.85;;;18.10;83.30;;;;;;4859485;29;20378;-72
2022/10/30 16:31:01;;;;;;;17.10;9.55;;;18.00;83.20;;;;;;4846155;29;20045;-75
2022/10/30 16:33:29;;;;;;;17.50;9.38;;;18.00;83.20;;;;;;4862477;29;20053;-76
2022/10/30 16:35:55;;;;;;;19.75;10.73;;;18.00;83.10;;;;;;4862697;29;20050;-74
2022/10/30 16:38:23;;;;;;;20.25;12.93;;;18.00;83.10;;;;;;4862628;29;20081;-76
2022/10/30 16:40:49;;;;;;;15.65;10.63;;;18.00;83.20;;;;;;4862188;29;20128;-74
2022/10/30 16:43:31;;;;;;;19.15;12.02;;;18.10;83.30;;;;;;4864098;29;20113;-76
2022/10/30 16:46:16;;;;;;;21.38;11.50;;;18.00;83.40;;;;;;4881341;29;20088;-76
2022/10/30 16:48:47;;;;;;;18.95;10.65;;;18.10;83.40;;;;;;4853520;29;20059;-75
2022/10/30 16:51:16;;;;;;;17.23;10.73;;;18.10;83.40;;;;;;4862284;29;20049;-76
2022/10/30 16:53:50;;;;;;;24.02;11.95;;;18.10;83.30;;;;;;4862692;29;20046;-75
2022/10/30 16:56:36;;;;;;;24.30;11.40;;;18.10;83.30;;;;;;4862382;29;20060;-75
2022/10/30 16:59:12;;;;;;;18.00;11.35;;;18.10;83.30;;;;;;4862272;29;20065;-75
2022/10/30 17:01:38;;;;;;;24.23;12.05;;;18.10;83.30;;;;;;4867864;29;20037;-74
2022/10/30 17:04:04;;;;;;;22.27;11.35;;;18.10;83.30;;;;;;4880905;29;20059;-74
2022/10/30 17:06:42;;;;;;;20.33;11.02;;;18.10;83.40;;;;;;4881038;29;20049;-75
2022/10/30 17:09:22;;;;;;;18.83;11.98;;;18.00;83.30;;;;;;4881056;29;20466;-73
2022/10/30 17:12:05;;;;;;;21.48;13.45;;;18.10;83.30;;;;;;4873710;29;20443;-73
2022/10/30 17:14:45;;;;;;;23.58;14.50;;;18.10;83.20;;;;;;4862752;29;20358;-73
2022/10/30 17:17:41;;;;;;;18.95;13.02;;;18.00;83.00;;;;;;4862491;29;20052;-73
2022/10/30 17:20:19;;;;;;;24.55;15.88;;;18.00;83.00;;;;;;4861541;29;20136;-73
2022/10/30 17:22:46;;;;;;;27.10;15.50;;;18.00;83.00;;;;;;4862984;29;20049;-76
2022/10/30 17:25:38;;;;;;;22.98;14.05;;;18.00;83.10;;;;;;4862515;29;20061;-75
2022/10/30 17:28:04;;;;;;;25.30;15.02;;;18.00;83.10;;;;;;4865116;29;20080;-74
2022/10/30 17:30:39;;;;;;;26.17;13.93;;;18.00;83.10;;;;;;4881278;29;20065;-75
2022/10/30 17:33:35;;;;;;;19.55;12.65;;;18.00;83.10;;;;;;4880712;29;20041;-77
2022/10/30 17:36:03;;;;;;;22.02;11.38;;;18.00;83.00;;;;;;4880986;29;20059;-76
2022/10/30 17:38:29;;;;;;;20.55;12.25;;;18.00;83.10;;;;;;4877706;29;20109;-76
2022/10/30 17:40:55;;;;;;;17.20;10.70;;;18.00;83.10;;;;;;4865819;29;20057;-74
2022/10/30 17:43:26;;;;;;;20.73;11.48;;;18.00;83.20;;;;;;4849155;29;20092;-75
2022/10/30 17:45:52;;;;;;;16.95;11.00;;;18.00;83.30;;;;;;4865201;29;20055;-77
2022/10/30 17:48:22;;;;;;;20.98;11.65;;;18.00;83.30;;;;;;4869702;29;20119;-78
2022/10/30 17:50:48;;;;;;;19.75;11.60;;;18.10;83.30;;;;;;4883962;29;20140;-74
2022/10/30 17:53:20;;;;;;;15.35;10.73;;;18.00;83.20;;;;;;4884127;29;20128;-74
2022/10/30 17:56:14;;;;;;;18.73;10.82;;;18.10;83.40;;;;;;4883916;29;20053;-75
2022/10/30 17:58:39;;;;;;;17.80;10.90;;;18.10;83.30;;;;;;4870680;29;20065;-75
2022/10/30 18:01:05;;;;;;;18.27;10.40;;;18.10;83.40;;;;;;4866718;29;20525;-73
2022/10/30 18:03:31;;;;;;;16.00;10.27;;;18.10;83.30;;;;;;4883651;29;20123;-73
2022/10/30 18:06:00;;;;;;;26.27;10.63;;;18.10;83.20;;;;;;4883317;29;20057;-74
2022/10/30 18:08:25;;;;;;;17.83;10.75;;;18.10;83.10;;;;;;4884029;29;20066;-74
2022/10/30 18:10:51;;;;;;;15.77;9.57;;;18.10;83.00;;;;;;4884105;29;20132;-73
2022/10/30 18:13:18;;;;;;;18.88;10.38;;;18.10;82.80;;;;;;4865629;29;20045;-75
2022/10/30 18:15:57;;;;;;;18.73;10.65;;;18.10;82.80;;;;;;4864917;29;20512;-73
2022/10/30 18:18:23;;;;;;;15.50;8.98;;;18.10;82.60;;;;;;4864364;29;20108;-73
2022/10/30 18:20:49;;;;;;;15.45;9.32;;;18.10;82.60;;;;;;4864911;29;20463;-73
2022/10/30 18:23:23;;;;;;;18.27;10.20;;;18.10;82.50;;;;;;4881192;29;20049;-74
2022/10/30 18:25:49;;;;;;;12.82;8.50;;;18.20;82.50;;;;;;4883580;29;20049;-74
2022/10/30 18:28:15;;;;;;;13.38;8.70;;;18.20;82.50;;;;;;4867336;29;20124;-75
2022/10/30 18:30:45;;;;;;;17.02;9.20;;;18.20;82.40;;;;;;4883501;29;20053;-73
2022/10/30 18:33:11;;;;;;;15.77;8.55;;;18.20;82.30;;;;;;4866503;29;20124;-73
2022/10/30 18:35:38;;;;;;;14.95;8.00;;;18.20;82.30;;;;;;4864706;29;20518;-73
2022/10/30 18:38:05;;;;;;;16.13;8.60;;;18.20;82.20;;;;;;4864792;29;20059;-74
2022/10/30 18:40:31;;;;;;;14.60;8.55;;;18.20;82.10;;;;;;4864517;29;20053;-74
2022/10/30 18:42:57;;;;;;;12.02;8.07;;;18.20;82.10;;;;;;4862237;29;20363;-73
2022/10/30 18:45:36;;;;;;;15.93;7.65;;;18.20;82.10;;;;;;4882881;29;20144;-73
2022/10/30 18:48:03;;;;;;;10.48;7.20;;;18.20;82.00;;;;;;4881991;29;20105;-74
2022/10/30 18:50:29;;;;;;;15.50;8.25;;;18.20;82.00;;;;;;4882804;29;20415;-73
2022/10/30 18:52:56;;;;;;;12.90;7.22;;;18.20;82.00;;;;;;4868671;29;20060;-73
2022/10/30 18:55:33;;;;;;;10.70;7.05;;;18.20;82.00;;;;;;4864550;29;20053;-73
2022/10/30 18:57:59;;;;;;;11.32;7.15;;;18.20;82.50;;;;;;4847668;29;20057;-73
2022/10/30 19:00:27;;;;;;;13.85;7.70;;;18.20;82.50;;;;;;4863030;29;20049;-70
2022/10/30 19:02:54;;;;;;;11.50;6.57;;;18.20;81.90;;;;;;4862499;29;20128;-77
2022/10/30 19:05:46;;;;;;;9.73;6.57;;;18.20;81.80;;;;;;4861424;29;20455;-76
2022/10/30 19:08:12;;;;;;;12.82;6.90;;;18.20;82.00;;;;;;4863104;29;20068;-77
2022/10/30 19:10:41;;;;;;;10.00;6.35;;;18.20;82.10;;;;;;4863796;29;20486;-77